createdAt,value
2018-05-02T00:01:22.644Z,2.65
2018-05-02T00:03:50.127Z,2.00
2018-05-02T00:06:17.605Z,2.30
2018-05-02T00:08:45.000Z,2.33
2018-05-02T00:11:12.398Z,2.40
2018-05-02T00:13:39.932Z,3.37
2018-05-02T00:16:07.881Z,2.47
2018-05-02T00:18:35.270Z,2.40
2018-05-02T00:21:02.692Z,3.20
2018-05-02T00:23:30.247Z,2.97
2018-05-02T00:25:57.639Z,2.50
2018-05-02T00:28:25.137Z,3.17
2018-05-02T00:30:52.564Z,2.42
2018-05-02T00:33:19.951Z,2.53
2018-05-02T00:35:47.392Z,2.75
2018-05-02T00:38:14.827Z,3.15
2018-05-02T00:40:42.260Z,2.62
2018-05-02T00:43:09.956Z,2.05
2018-05-02T00:45:37.385Z,2.72
2018-05-02T00:48:04.781Z,2.70
2018-05-02T00:50:32.549Z,2.20
2018-05-02T00:53:00.548Z,2.35
2018-05-02T00:55:28.025Z,2.28
2018-05-02T00:57:55.432Z,2.80
2018-05-02T01:00:23.379Z,2.60
2018-05-02T01:02:50.849Z,3.05
2018-05-02T01:05:18.239Z,2.72
2018-05-02T01:07:45.672Z,2.00
2018-05-02T01:10:13.106Z,2.17
2018-05-02T01:12:40.530Z,2.35
2018-05-02T01:15:07.930Z,2.75
2018-05-02T01:17:35.369Z,2.53
2018-05-02T01:20:02.841Z,2.65
2018-05-02T01:22:30.436Z,3.00
2018-05-02T01:24:57.882Z,2.20
2018-05-02T01:27:25.504Z,2.25
2018-05-02T01:29:52.947Z,2.62
2018-05-02T01:32:20.435Z,2.28
2018-05-02T01:34:48.568Z,1.77
2018-05-02T01:37:15.975Z,2.67
2018-05-02T01:39:43.437Z,2.75
2018-05-02T01:42:10.859Z,2.40
2018-05-02T01:44:38.318Z,2.25
2018-05-02T01:47:05.791Z,3.03
2018-05-02T01:49:33.190Z,2.15
2018-05-02T01:52:00.627Z,2.05
2018-05-02T01:54:28.488Z,2.22
2018-05-02T01:56:55.890Z,3.35
2018-05-02T01:59:23.348Z,2.08
2018-05-02T02:01:50.781Z,2.95
2018-05-02T02:04:18.233Z,2.12
2018-05-02T02:06:45.622Z,1.80
2018-05-02T02:09:13.059Z,3.03
2018-05-02T02:11:40.632Z,1.92
2018-05-02T02:14:08.104Z,2.40
2018-05-02T02:16:35.531Z,2.37
2018-05-02T02:19:02.964Z,2.45
2018-05-02T02:21:30.387Z,1.92
2018-05-02T02:23:57.808Z,2.03
2018-05-02T02:26:25.232Z,1.80
2018-05-02T02:28:52.656Z,2.53
2018-05-02T02:31:20.099Z,2.30
2018-05-02T02:33:47.512Z,2.72
2018-05-02T02:36:15.112Z,2.05
2018-05-02T02:38:42.581Z,2.30
2018-05-02T02:41:10.008Z,2.03
2018-05-02T02:43:37.490Z,2.00
2018-05-02T02:46:04.918Z,2.33
2018-05-02T02:48:32.364Z,2.35
2018-05-02T02:50:59.792Z,2.70
2018-05-02T02:53:27.239Z,2.42
2018-05-02T02:55:54.673Z,2.95
2018-05-02T02:58:22.111Z,2.25
2018-05-02T03:00:49.536Z,3.22
2018-05-02T03:03:16.956Z,2.12
2018-05-02T03:05:44.416Z,2.65
2018-05-02T03:08:11.934Z,2.42
2018-05-02T03:10:38.651Z,2.35
2018-05-02T03:13:06.074Z,2.35
2018-05-02T03:15:33.652Z,2.30
2018-05-02T03:18:01.925Z,2.10
2018-05-02T03:20:29.339Z,2.35
2018-05-02T03:22:56.759Z,3.03
2018-05-02T03:25:24.264Z,2.62
2018-05-02T03:27:51.736Z,1.98
2018-05-02T03:30:19.165Z,2.67
2018-05-02T03:32:46.669Z,3.45
2018-05-02T03:35:14.097Z,2.37
2018-05-02T03:37:41.596Z,2.97
2018-05-02T03:40:09.061Z,2.87
2018-05-02T03:42:36.462Z,2.12
2018-05-02T03:45:03.947Z,3.03
2018-05-02T03:47:31.856Z,2.60
2018-05-02T03:49:59.319Z,2.58
2018-05-02T03:52:26.760Z,3.97
2018-05-02T03:54:54.170Z,2.40
2018-05-02T03:57:21.607Z,2.78
2018-05-02T04:00:01.152Z,2.03
2018-05-02T04:02:40.300Z,3.50
2018-05-02T04:05:19.429Z,2.90
2018-05-02T04:07:46.847Z,1.80
2018-05-02T04:10:14.320Z,2.75
2018-05-02T04:12:41.737Z,2.35
2018-05-02T04:15:09.177Z,3.00
2018-05-02T04:17:37.091Z,1.85
2018-05-02T04:20:04.520Z,3.00
2018-05-02T04:22:31.909Z,2.65
2018-05-02T04:24:59.406Z,2.53
2018-05-02T04:27:26.828Z,4.85
2018-05-02T04:29:54.253Z,2.42
2018-05-02T04:32:21.720Z,2.08
2018-05-02T04:34:49.729Z,2.75
2018-05-02T04:37:17.167Z,3.72
2018-05-02T04:39:44.604Z,2.10
2018-05-02T04:42:12.082Z,4.00
2018-05-02T04:44:39.553Z,3.70
2018-05-02T04:47:06.939Z,3.20
2018-05-02T04:49:34.388Z,2.90
2018-05-02T04:52:01.827Z,4.25
2018-05-02T04:54:29.259Z,3.87
2018-05-02T04:56:56.660Z,3.55
2018-05-02T04:59:24.155Z,3.22
2018-05-02T05:01:51.604Z,2.33
2018-05-02T05:04:19.285Z,3.05
2018-05-02T05:06:46.743Z,3.62
2018-05-02T05:09:14.360Z,3.90
2018-05-02T05:11:41.800Z,2.85
2018-05-02T05:14:09.280Z,2.78
2018-05-02T05:16:36.678Z,3.60
2018-05-02T05:19:04.132Z,2.60
2018-05-02T05:21:31.657Z,2.92
2018-05-02T05:23:59.097Z,3.03
2018-05-02T05:26:26.564Z,3.55
2018-05-02T05:28:53.991Z,3.53
2018-05-02T05:31:21.462Z,3.65
2018-05-02T05:33:48.918Z,3.12
2018-05-02T05:36:16.343Z,4.30
2018-05-02T05:38:43.768Z,4.03
2018-05-02T05:41:11.208Z,4.30
2018-05-02T05:43:39.694Z,4.50
2018-05-02T05:46:07.101Z,4.07
2018-05-02T05:48:34.531Z,3.70
2018-05-02T05:51:01.988Z,4.20
2018-05-02T05:53:29.415Z,4.25
2018-05-02T05:55:56.903Z,5.82
2018-05-02T05:58:24.326Z,4.30
2018-05-02T06:00:51.831Z,2.90
2018-05-02T06:03:19.298Z,3.55
2018-05-02T06:05:46.725Z,3.35
2018-05-02T06:08:14.301Z,4.55
2018-05-02T06:10:41.762Z,3.62
2018-05-02T06:13:09.188Z,3.92
2018-05-02T06:15:36.669Z,3.35
2018-05-02T06:18:04.096Z,4.45
2018-05-02T06:20:31.528Z,4.37
2018-05-02T06:22:58.974Z,4.00
2018-05-02T06:25:26.435Z,3.00
2018-05-02T06:27:54.155Z,3.78
2018-05-02T06:30:21.542Z,4.35
2018-05-02T06:32:48.944Z,3.95
2018-05-02T06:35:16.691Z,4.05
2018-05-02T06:37:44.237Z,3.05
2018-05-02T06:40:11.669Z,3.25
2018-05-02T06:42:39.176Z,3.17
2018-05-02T06:45:06.603Z,3.70
2018-05-02T06:47:34.003Z,3.30
2018-05-02T06:50:01.433Z,3.40
2018-05-02T06:52:28.902Z,4.22
2018-05-02T06:54:56.360Z,4.12
2018-05-02T06:57:23.889Z,4.37
2018-05-02T06:59:51.324Z,3.15
2018-05-02T07:02:18.813Z,3.83
2018-05-02T07:04:46.638Z,3.75
2018-05-02T07:07:14.176Z,3.22
2018-05-02T07:09:42.128Z,3.87
2018-05-02T07:12:09.604Z,4.15
2018-05-02T07:14:37.099Z,3.58
2018-05-02T07:17:04.555Z,3.22
2018-05-02T07:19:31.951Z,5.50
2018-05-02T07:21:59.420Z,3.85
2018-05-02T07:24:26.856Z,4.12
2018-05-02T07:26:54.358Z,3.78
2018-05-02T07:29:21.843Z,5.35
2018-05-02T07:31:49.278Z,3.65
2018-05-02T07:34:16.745Z,3.78
2018-05-02T07:36:44.233Z,4.32
2018-05-02T07:39:11.702Z,3.67
2018-05-02T07:41:39.135Z,3.50
2018-05-02T07:44:06.560Z,4.20
2018-05-02T07:46:34.047Z,3.35
2018-05-02T07:49:01.521Z,3.85
2018-05-02T07:51:28.928Z,4.45
2018-05-02T07:53:56.362Z,3.83
2018-05-02T07:56:23.918Z,11.18
2018-05-02T07:58:51.326Z,4.30
2018-05-02T08:01:18.795Z,4.53
2018-05-02T08:03:46.291Z,9.20
2018-05-02T08:06:13.903Z,4.18
2018-05-02T08:08:41.323Z,3.70
2018-05-02T08:11:08.837Z,3.75
2018-05-02T08:13:36.292Z,5.75
2018-05-02T08:16:04.157Z,2.65
2018-05-02T08:18:31.591Z,3.80
2018-05-02T08:20:59.012Z,3.45
2018-05-02T08:23:26.507Z,5.28
2018-05-02T08:25:53.969Z,4.20
2018-05-02T08:28:21.440Z,3.60
2018-05-02T08:30:49.120Z,4.72
2018-05-02T08:33:16.596Z,4.62
2018-05-02T08:35:43.983Z,4.45
2018-05-02T08:38:11.383Z,4.07
2018-05-02T08:40:38.818Z,3.90
2018-05-02T08:43:06.284Z,3.50
2018-05-02T08:45:33.739Z,3.95
2018-05-02T08:48:02.097Z,3.30
2018-05-02T08:50:29.539Z,4.55
2018-05-02T08:52:56.959Z,4.40
2018-05-02T08:55:24.718Z,3.92
2018-05-02T08:57:52.783Z,4.25
2018-05-02T09:00:20.271Z,4.35
2018-05-02T09:02:47.815Z,4.70
2018-05-02T09:05:15.329Z,5.75
2018-05-02T09:07:42.806Z,4.03
2018-05-02T09:10:10.292Z,4.53
2018-05-02T09:12:37.733Z,4.18
2018-05-02T09:15:05.296Z,4.72
2018-05-02T09:17:32.687Z,3.58
2018-05-02T09:20:00.093Z,4.00
2018-05-02T09:22:27.527Z,4.25
2018-05-02T09:24:54.991Z,4.07
2018-05-02T09:27:22.455Z,4.70
2018-05-02T09:29:50.006Z,4.15
2018-05-02T09:32:17.471Z,5.87
2018-05-02T09:34:44.945Z,5.40
2018-05-02T09:37:12.402Z,4.55
2018-05-02T09:39:39.876Z,4.95
2018-05-02T09:42:07.349Z,3.85
2018-05-02T09:44:34.800Z,4.12
2018-05-02T09:47:02.215Z,5.07
2018-05-02T09:49:29.652Z,4.10
2018-05-02T09:51:57.121Z,5.35
2018-05-02T09:54:24.577Z,5.50
2018-05-02T09:56:52.031Z,3.15
2018-05-02T09:59:19.573Z,5.25
2018-05-02T10:01:47.195Z,5.03
2018-05-02T10:04:14.644Z,4.90
2018-05-02T10:06:42.158Z,6.87
2018-05-02T10:09:09.588Z,5.20
2018-05-02T10:11:37.008Z,5.25
2018-05-02T10:14:04.482Z,5.65
2018-05-02T10:16:31.945Z,6.43
2018-05-02T10:18:59.416Z,6.45
2018-05-02T10:21:27.202Z,7.45
2018-05-02T10:23:54.963Z,5.05
2018-05-02T10:26:22.469Z,5.78
2018-05-02T10:28:49.824Z,4.95
2018-05-02T10:31:17.394Z,6.25
2018-05-02T10:33:44.817Z,5.68
2018-05-02T10:36:12.271Z,5.70
2018-05-02T10:38:39.794Z,6.22
2018-05-02T10:41:07.218Z,6.37
2018-05-02T10:43:34.704Z,7.22
2018-05-02T10:46:02.172Z,7.05
2018-05-02T10:48:29.574Z,6.47
2018-05-02T10:50:57.010Z,6.97
2018-05-02T10:53:24.418Z,6.37
2018-05-02T10:55:51.880Z,6.90
2018-05-02T10:58:19.317Z,7.72
2018-05-02T11:00:46.733Z,5.47
2018-05-02T11:03:14.215Z,6.65
2018-05-02T11:05:41.760Z,6.80
2018-05-02T11:08:09.211Z,5.22
2018-05-02T11:10:36.689Z,7.30
2018-05-02T11:13:04.092Z,6.97
2018-05-02T11:15:31.514Z,6.93
2018-05-02T11:17:58.952Z,6.30
2018-05-02T11:20:26.380Z,5.87
2018-05-02T11:22:53.811Z,6.12
2018-05-02T11:25:21.263Z,6.22
2018-05-02T11:27:48.671Z,7.22
2018-05-02T11:30:16.128Z,5.10
2018-05-02T11:32:43.589Z,6.15
2018-05-02T11:35:11.030Z,5.85
2018-05-02T11:37:38.415Z,6.15
2018-05-02T11:40:05.872Z,5.00
2018-05-02T11:42:33.332Z,4.15
2018-05-02T11:45:00.773Z,6.55
2018-05-02T11:47:28.221Z,6.82
2018-05-02T11:49:55.615Z,5.93
2018-05-02T11:52:23.095Z,7.30
2018-05-02T11:54:50.611Z,6.22
2018-05-02T11:57:18.048Z,5.78
2018-05-02T11:59:45.559Z,5.40
2018-05-02T12:02:12.992Z,5.72
2018-05-02T12:04:40.464Z,4.43
2018-05-02T12:07:07.963Z,5.60
2018-05-02T12:09:35.395Z,5.93
2018-05-02T12:12:02.861Z,5.55
2018-05-02T12:14:30.361Z,5.90
2018-05-02T12:16:57.867Z,6.35
2018-05-02T12:19:25.279Z,5.68
2018-05-02T12:21:52.846Z,5.15
2018-05-02T12:24:20.219Z,6.72
2018-05-02T12:26:47.736Z,5.30
2018-05-02T12:29:15.216Z,4.97
2018-05-02T12:31:42.681Z,4.72
2018-05-02T12:34:10.107Z,4.97
2018-05-02T12:36:37.590Z,4.65
2018-05-02T12:39:05.941Z,7.10
2018-05-02T12:41:33.455Z,5.82
2018-05-02T12:44:00.914Z,5.35
2018-05-02T12:46:28.353Z,5.57
2018-05-02T12:48:55.797Z,4.70
2018-05-02T12:51:23.353Z,5.40
2018-05-02T12:53:50.742Z,5.10
2018-05-02T12:56:18.301Z,5.32
2018-05-02T12:58:45.651Z,3.83
2018-05-02T13:01:13.079Z,4.75
2018-05-02T13:03:40.516Z,3.97
2018-05-02T13:06:07.943Z,4.10
2018-05-02T13:08:35.361Z,5.00
2018-05-02T13:11:02.995Z,4.60
2018-05-02T13:13:30.834Z,4.55
2018-05-02T13:15:58.283Z,4.78
2018-05-02T13:18:25.757Z,4.30
2018-05-02T13:20:53.183Z,3.65
2018-05-02T13:23:20.659Z,4.40
2018-05-02T13:25:48.059Z,4.97
2018-05-02T13:28:15.486Z,4.62
2018-05-02T13:30:42.875Z,4.30
2018-05-02T13:33:10.372Z,4.60
2018-05-02T13:35:37.807Z,3.72
2018-05-02T13:38:05.243Z,4.25
2018-05-02T13:40:32.695Z,4.00
2018-05-02T13:43:00.200Z,4.53
2018-05-02T13:45:27.643Z,3.25
2018-05-02T13:47:55.507Z,3.67
2018-05-02T13:50:23.033Z,4.20
2018-05-02T13:52:50.472Z,3.60
2018-05-02T13:55:18.205Z,4.60
2018-05-02T13:57:45.664Z,4.07
2018-05-02T14:00:13.093Z,4.82
2018-05-02T14:02:41.361Z,5.25
2018-05-02T14:05:08.755Z,3.70
2018-05-02T14:07:36.342Z,3.55
2018-05-02T14:10:03.739Z,3.50
2018-05-02T14:12:31.968Z,4.85
2018-05-02T14:14:59.492Z,3.85
2018-05-02T14:17:26.895Z,5.22
2018-05-02T14:19:54.302Z,3.60
2018-05-02T14:22:22.060Z,5.10
2018-05-02T14:24:49.711Z,4.12
2018-05-02T14:27:17.015Z,4.07
2018-05-02T14:29:44.492Z,3.95
2018-05-02T14:32:11.927Z,6.00
2018-05-02T14:34:39.355Z,5.62
2018-05-02T14:37:06.819Z,4.28
2018-05-02T14:39:34.285Z,3.97
2018-05-02T14:42:01.704Z,4.93
2018-05-02T14:44:29.170Z,4.50
2018-05-02T14:46:56.639Z,6.25
2018-05-02T14:49:24.199Z,4.07
2018-05-02T14:51:51.587Z,6.45
2018-05-02T14:54:19.036Z,4.70
2018-05-02T14:56:46.448Z,4.80
2018-05-02T14:59:13.883Z,3.80
2018-05-02T15:01:41.342Z,5.40
2018-05-02T15:04:08.776Z,4.97
2018-05-02T15:06:36.291Z,4.18
2018-05-02T15:09:03.717Z,5.43
2018-05-02T15:11:31.142Z,4.75
2018-05-02T15:13:58.540Z,5.00
2018-05-02T15:16:26.130Z,7.25
2018-05-02T15:18:53.607Z,5.07
2018-05-02T15:21:21.041Z,5.57
2018-05-02T15:23:48.518Z,5.55
2018-05-02T15:26:15.951Z,4.15
2018-05-02T15:28:43.367Z,5.30
2018-05-02T15:31:10.769Z,6.45
2018-05-02T15:33:38.835Z,5.37
2018-05-02T15:36:06.287Z,4.72
2018-05-02T15:38:33.811Z,5.53
2018-05-02T15:41:01.731Z,5.85
2018-05-02T15:43:29.129Z,5.93
2018-05-02T15:45:56.605Z,5.10
2018-05-02T15:48:24.042Z,7.00
2018-05-02T15:50:51.485Z,5.65
2018-05-02T15:53:18.891Z,5.80
2018-05-02T15:55:46.952Z,5.40
2018-05-02T15:58:14.563Z,5.70
2018-05-02T16:00:41.950Z,5.25
2018-05-02T16:03:09.367Z,6.30
2018-05-02T16:05:36.858Z,6.72
2018-05-02T16:08:04.349Z,6.00
2018-05-02T16:10:31.810Z,5.80
2018-05-02T16:12:59.534Z,6.20
2018-05-02T16:15:26.961Z,7.40
2018-05-02T16:17:54.417Z,5.90
2018-05-02T16:20:21.818Z,5.53
2018-05-02T16:22:49.332Z,4.70
2018-05-02T16:25:16.767Z,7.45
2018-05-02T16:27:44.324Z,6.40
2018-05-02T16:30:11.741Z,5.82
2018-05-02T16:32:39.279Z,6.57
2018-05-02T16:35:06.703Z,6.50
2018-05-02T16:37:34.143Z,6.82
2018-05-02T16:40:01.696Z,5.72
2018-05-02T16:42:29.111Z,5.90
2018-05-02T16:44:56.544Z,5.93
2018-05-02T16:47:23.944Z,5.85
2018-05-02T16:49:51.457Z,7.35
2018-05-02T16:52:18.887Z,7.10
2018-05-02T16:54:46.621Z,6.68
2018-05-02T16:57:14.084Z,5.97
2018-05-02T16:59:41.559Z,8.02
2018-05-02T17:02:08.963Z,9.63
2018-05-02T17:04:36.459Z,8.90
2018-05-02T17:07:03.881Z,7.45
2018-05-02T17:09:31.341Z,6.47
2018-05-02T17:11:58.751Z,7.82
2018-05-02T17:14:26.154Z,7.47
2018-05-02T17:16:53.606Z,7.10
2018-05-02T17:19:21.135Z,6.72
2018-05-02T17:21:48.548Z,5.68
2018-05-02T17:24:15.972Z,7.10
2018-05-02T17:26:43.432Z,5.87
2018-05-02T17:29:10.885Z,6.68
2018-05-02T17:31:38.335Z,6.03
2018-05-02T17:34:05.898Z,6.03
2018-05-02T17:36:33.365Z,7.00
2018-05-02T17:39:00.803Z,6.30
2018-05-02T17:41:28.342Z,7.70
2018-05-02T17:43:55.813Z,6.35
2018-05-02T17:46:23.350Z,5.85
2018-05-02T17:48:50.712Z,4.72
2018-05-02T17:51:18.185Z,6.65
2018-05-02T17:53:45.652Z,7.45
2018-05-02T17:56:13.075Z,5.62
2018-05-02T17:58:40.507Z,6.15
2018-05-02T18:01:07.976Z,5.57
2018-05-02T18:03:35.409Z,6.90
2018-05-02T18:06:02.845Z,5.32
2018-05-02T18:08:30.312Z,5.80
2018-05-02T18:10:57.753Z,5.35
2018-05-02T18:13:25.212Z,5.70
2018-05-02T18:15:52.668Z,5.75
2018-05-02T18:18:20.127Z,7.00
2018-05-02T18:20:47.593Z,7.53
2018-05-02T18:23:15.027Z,6.78
2018-05-02T18:25:42.507Z,6.70
2018-05-02T18:28:10.023Z,6.40
2018-05-02T18:30:37.374Z,6.37
2018-05-02T18:33:04.829Z,5.30
2018-05-02T18:35:32.307Z,5.20
2018-05-02T18:37:59.762Z,5.55
2018-05-02T18:40:27.207Z,5.18
2018-05-02T18:42:54.630Z,5.82
2018-05-02T18:45:22.077Z,5.95
2018-05-02T18:47:49.550Z,5.90
2018-05-02T18:50:16.986Z,5.25
2018-05-02T18:52:44.439Z,6.05
2018-05-02T18:55:11.823Z,6.32
2018-05-02T18:57:39.255Z,5.60
2018-05-02T19:00:06.692Z,5.72
2018-05-02T19:02:34.172Z,5.10
2018-05-02T19:05:01.935Z,5.32
2018-05-02T19:07:29.382Z,6.60
2018-05-02T19:09:56.820Z,7.22
2018-05-02T19:12:24.289Z,5.05
2018-05-02T19:14:51.684Z,5.65
2018-05-02T19:17:19.132Z,4.72
2018-05-02T19:19:52.065Z,4.90
2018-05-02T19:22:19.523Z,5.53
2018-05-02T19:27:41.085Z,8.40
2018-05-02T19:30:08.556Z,6.78
2018-05-02T19:32:41.546Z,5.37
2018-05-02T19:35:08.952Z,5.50
2018-05-02T19:37:36.457Z,5.72
2018-05-02T19:40:10.071Z,5.75
2018-05-02T19:42:43.320Z,4.93
2018-05-02T19:45:10.743Z,5.00
2018-05-02T19:47:38.221Z,5.62
2018-05-02T19:50:05.655Z,5.43
2018-05-02T19:52:38.845Z,4.25
2018-05-02T19:55:06.529Z,4.35
2018-05-02T19:57:33.994Z,4.95
2018-05-02T20:00:01.488Z,4.05
2018-05-02T20:02:34.534Z,4.80
2018-05-02T20:05:01.980Z,5.15
2018-05-02T20:07:34.977Z,4.65
2018-05-02T20:10:07.964Z,4.05
2018-05-02T20:12:41.104Z,4.00
2018-05-02T20:15:08.554Z,5.03
2018-05-02T20:17:36.025Z,4.85
2018-05-02T20:20:03.460Z,3.75
2018-05-02T20:22:30.883Z,3.87
2018-05-02T20:24:58.327Z,4.55
2018-05-02T20:27:25.744Z,4.87
2018-05-02T20:29:53.278Z,4.15
2018-05-02T20:32:20.671Z,4.65
2018-05-02T20:34:48.149Z,3.60
2018-05-02T20:37:15.624Z,4.93
2018-05-02T20:39:43.052Z,4.30
2018-05-02T20:42:10.485Z,5.93
2018-05-02T20:44:37.961Z,4.00
2018-05-02T20:47:05.437Z,3.72
2018-05-02T20:49:32.843Z,3.30
2018-05-02T20:52:00.293Z,3.15
2018-05-02T20:54:27.837Z,3.67
2018-05-02T20:56:55.232Z,3.80
2018-05-02T20:59:22.654Z,3.50
2018-05-02T21:01:50.077Z,3.22
2018-05-02T21:04:17.507Z,3.65
2018-05-02T21:06:44.955Z,3.42
2018-05-02T21:09:12.406Z,3.90
2018-05-02T21:11:39.832Z,3.87
2018-05-02T21:14:07.302Z,3.42
2018-05-02T21:16:34.781Z,3.78
2018-05-02T21:19:02.443Z,3.15
2018-05-02T21:21:29.836Z,3.35
2018-05-02T21:23:57.307Z,3.62
2018-05-02T21:26:24.728Z,4.90
2018-05-02T21:28:52.152Z,3.87
2018-05-02T21:31:19.580Z,4.78
2018-05-02T21:33:46.978Z,3.60
2018-05-02T21:36:14.427Z,3.70
2018-05-02T21:38:41.847Z,3.12
2018-05-02T21:41:09.280Z,3.72
2018-05-02T21:43:36.744Z,3.50
2018-05-02T21:46:04.212Z,3.30
2018-05-02T21:48:31.746Z,4.03
2018-05-02T21:50:59.303Z,3.37
2018-05-02T21:53:26.827Z,4.40
2018-05-02T21:55:54.214Z,2.60
2018-05-02T21:58:21.646Z,3.60
2018-05-02T22:00:49.485Z,3.35
2018-05-02T22:03:17.036Z,3.80
2018-05-02T22:05:44.434Z,3.40
2018-05-02T22:08:11.998Z,4.62
2018-05-02T22:10:39.493Z,3.97
2018-05-02T22:13:06.932Z,3.25
2018-05-02T22:15:34.314Z,4.18
2018-05-02T22:18:01.859Z,3.55
2018-05-02T22:20:29.693Z,4.10
2018-05-02T22:22:57.166Z,3.95
2018-05-02T22:25:24.647Z,4.18
2018-05-02T22:27:52.086Z,5.90
2018-05-02T22:30:19.565Z,5.60
2018-05-02T22:32:47.633Z,5.05
2018-05-02T22:35:15.084Z,6.72
2018-05-02T22:37:42.524Z,5.75
2018-05-02T22:40:10.001Z,6.18
2018-05-02T22:42:37.461Z,5.65
2018-05-02T22:45:04.888Z,5.78
2018-05-02T22:47:32.346Z,5.45
2018-05-02T22:50:00.211Z,6.47
2018-05-02T22:52:27.640Z,6.68
2018-05-02T22:54:55.069Z,6.30
2018-05-02T22:57:22.604Z,7.55
2018-05-02T22:59:50.075Z,8.23
2018-05-02T23:02:17.492Z,6.40
2018-05-02T23:04:44.906Z,7.18
2018-05-02T23:07:12.417Z,7.53
2018-05-02T23:09:39.900Z,7.35
2018-05-02T23:12:07.335Z,7.32
2018-05-02T23:14:34.816Z,6.57
2018-05-02T23:17:02.211Z,7.15
2018-05-02T23:19:29.643Z,7.78
2018-05-02T23:21:57.550Z,7.43
2018-05-02T23:24:25.144Z,7.68
2018-05-02T23:26:52.629Z,5.45
2018-05-02T23:29:20.023Z,5.62
2018-05-02T23:31:47.450Z,7.35
2018-05-02T23:34:14.878Z,5.60
2018-05-02T23:36:42.291Z,7.43
2018-05-02T23:39:09.727Z,7.80
2018-05-02T23:41:37.202Z,6.37
2018-05-02T23:44:04.677Z,7.28
2018-05-02T23:46:32.068Z,6.70
2018-05-02T23:48:59.491Z,5.75
2018-05-02T23:51:26.958Z,6.35
2018-05-02T23:53:54.414Z,5.10
2018-05-02T23:56:21.881Z,6.28
2018-05-02T23:58:49.347Z,6.28
